Terminal Aerodrome Forecast
Issued by NWS

Home | Current Version | Previous Version | Text Only | Print | Product List | Glossary On
Versions: 1 2 3 4 5 6 7 8 9 10 11 12 13 14 15 16 17 18 19 20
000
FTUS44 KBMX 220117 AAA
TAFANB
TAF AMD
KANB 220117Z 2201/2224 00000KT 3SM BR SCT035 BKN250
      TEMPO 2201/2205 1SM BR
     FM220600 35004KT P6SM BKN250
     FM221400 01009KT P6SM SKC=

USA.gov is the U.S. government's official web portal to all federal, state and local government web resources and services.